sensor_id;sensor_type;location;lat;lon;timestamp;pressure;altitude;pressure_sealevel;temperature;humidity
76680;BME280;65597;51.520;-0.224;2023-02-12T00:01:40;103745.52;;;10.23;36.11
76680;BME280;65597;51.520;-0.224;2023-02-12T00:04:06;103745.54;;;10.24;36.62
76680;BME280;65597;51.520;-0.224;2023-02-12T00:06:37;103747.46;;;9.77;36.90
76680;BME280;65597;51.520;-0.224;2023-02-12T00:08:57;103747.82;;;10.11;36.56
76680;BME280;65597;51.520;-0.224;2023-02-12T00:11:24;103745.24;;;10.06;36.35
76680;BME280;65597;51.520;-0.224;2023-02-12T00:13:48;103743.18;;;10.17;36.46
76680;BME280;65597;51.520;-0.224;2023-02-12T00:16:15;103748.23;;;10.06;36.40
76680;BME280;65597;51.520;-0.224;2023-02-12T00:18:38;103753.36;;;10.61;36.57
76680;BME280;65597;51.520;-0.224;2023-02-12T00:21:05;103751.90;;;10.39;36.51
76680;BME280;65597;51.520;-0.224;2023-02-12T00:23:30;103748.54;;;9.95;36.79
76680;BME280;65597;51.520;-0.224;2023-02-12T00:25:55;103749.29;;;10.34;36.84
76680;BME280;65597;51.520;-0.224;2023-02-12T00:28:21;103750.75;;;10.21;36.89
76680;BME280;65597;51.520;-0.224;2023-02-12T00:30:46;103746.87;;;10.27;36.84
76680;BME280;65597;51.520;-0.224;2023-02-12T00:33:13;103747.07;;;9.96;36.91
76680;BME280;65597;51.520;-0.224;2023-02-12T00:35:38;103747.77;;;9.95;36.73
76680;BME280;65597;51.520;-0.224;2023-02-12T00:38:03;103753.06;;;10.38;36.71
76680;BME280;65597;51.520;-0.224;2023-02-12T00:40:28;103752.16;;;10.12;36.39
76680;BME280;65597;51.520;-0.224;2023-02-12T00:42:53;103747.50;;;10.24;36.62
76680;BME280;65597;51.520;-0.224;2023-02-12T00:45:19;103747.61;;;10.04;36.63
76680;BME280;65597;51.520;-0.224;2023-02-12T00:47:44;103751.43;;;10.30;36.66
76680;BME280;65597;51.520;-0.224;2023-02-12T00:50:11;103753.24;;;10.34;36.58
76680;BME280;65597;51.520;-0.224;2023-02-12T00:52:35;103748.67;;;10.60;36.67
76680;BME280;65597;51.520;-0.224;2023-02-12T00:55:00;103746.91;;;10.38;37.04
76680;BME280;65597;51.520;-0.224;2023-02-12T00:57:26;103745.43;;;10.38;36.84
76680;BME280;65597;51.520;-0.224;2023-02-12T00:59:51;103746.36;;;10.42;36.79
76680;BME280;65597;51.520;-0.224;2023-02-12T01:02:17;103750.05;;;10.20;36.75
76680;BME280;65597;51.520;-0.224;2023-02-12T01:04:42;103748.15;;;10.45;37.04
76680;BME280;65597;51.520;-0.224;2023-02-12T01:07:08;103742.10;;;10.24;36.78
76680;BME280;65597;51.520;-0.224;2023-02-12T01:09:34;103744.01;;;10.24;36.51
76680;BME280;65597;51.520;-0.224;2023-02-12T01:11:58;103739.41;;;10.18;36.64
76680;BME280;65597;51.520;-0.224;2023-02-12T01:14:24;103739.85;;;10.28;36.42
76680;BME280;65597;51.520;-0.224;2023-02-12T01:16:49;103743.54;;;10.53;36.43
76680;BME280;65597;51.520;-0.224;2023-02-12T01:19:14;103742.97;;;10.49;36.05
76680;BME280;65597;51.520;-0.224;2023-02-12T01:21:41;103745.32;;;10.49;36.11
76680;BME280;65597;51.520;-0.224;2023-02-12T01:24:06;103745.88;;;10.24;35.99
76680;BME280;65597;51.520;-0.224;2023-02-12T01:26:36;103749.32;;;10.25;36.12
76680;BME280;65597;51.520;-0.224;2023-02-12T01:28:59;103750.81;;;10.49;36.42
76680;BME280;65597;51.520;-0.224;2023-02-12T01:31:25;103752.10;;;10.41;36.50
76680;BME280;65597;51.520;-0.224;2023-02-12T01:33:52;103750.02;;;10.35;36.78
76680;BME280;65597;51.520;-0.224;2023-02-12T01:36:14;103747.60;;;10.16;36.82
76680;BME280;65597;51.520;-0.224;2023-02-12T01:38:39;103748.62;;;10.41;36.75
76680;BME280;65597;51.520;-0.224;2023-02-12T01:41:07;103743.91;;;10.35;36.87
76680;BME280;65597;51.520;-0.224;2023-02-12T01:43:32;103739.93;;;10.30;36.96
76680;BME280;65597;51.520;-0.224;2023-02-12T01:45:58;103743.69;;;10.34;36.94
76680;BME280;65597;51.520;-0.224;2023-02-12T01:48:23;103746.85;;;10.54;37.02
76680;BME280;65597;51.520;-0.224;2023-02-12T01:50:48;103750.68;;;10.31;37.02
76680;BME280;65597;51.520;-0.224;2023-02-12T01:53:13;103747.58;;;10.51;37.16
76680;BME280;65597;51.520;-0.224;2023-02-12T01:55:38;103745.65;;;10.32;37.20
76680;BME280;65597;51.520;-0.224;2023-02-12T01:58:04;103745.90;;;10.13;37.34
76680;BME280;65597;51.520;-0.224;2023-02-12T02:00:29;103746.15;;;10.60;37.33
76680;BME280;65597;51.520;-0.224;2023-02-12T02:02:56;103743.65;;;10.10;37.49
76680;BME280;65597;51.520;-0.224;2023-02-12T02:05:25;103742.67;;;10.36;37.61
76680;BME280;65597;51.520;-0.224;2023-02-12T02:07:45;103742.71;;;10.53;37.66
76680;BME280;65597;51.520;-0.224;2023-02-12T02:10:11;103741.16;;;10.15;37.84
76680;BME280;65597;51.520;-0.224;2023-02-12T02:12:37;103737.83;;;10.43;37.88
76680;BME280;65597;51.520;-0.224;2023-02-12T02:15:03;103737.76;;;9.93;37.90
76680;BME280;65597;51.520;-0.224;2023-02-12T02:17:37;103742.70;;;10.17;37.92
76680;BME280;65597;51.520;-0.224;2023-02-12T02:22:24;103748.46;;;10.15;38.04
76680;BME280;65597;51.520;-0.224;2023-02-12T02:27:16;103753.31;;;10.05;38.25
76680;BME280;65597;51.520;-0.224;2023-02-12T02:29:47;103754.18;;;10.10;38.21
76680;BME280;65597;51.520;-0.224;2023-02-12T02:32:02;103753.66;;;10.17;38.15
76680;BME280;65597;51.520;-0.224;2023-02-12T02:34:29;103753.13;;;10.44;38.32
76680;BME280;65597;51.520;-0.224;2023-02-12T02:36:54;103756.00;;;10.40;38.51
76680;BME280;65597;51.520;-0.224;2023-02-12T02:39:19;103754.13;;;10.16;38.43
76680;BME280;65597;51.520;-0.224;2023-02-12T02:41:44;103755.43;;;10.17;38.31
76680;BME280;65597;51.520;-0.224;2023-02-12T02:44:11;103752.63;;;9.90;38.34
76680;BME280;65597;51.520;-0.224;2023-02-12T02:46:36;103750.19;;;9.91;38.50
76680;BME280;65597;51.520;-0.224;2023-02-12T02:48:59;103743.05;;;10.09;38.36
76680;BME280;65597;51.520;-0.224;2023-02-12T02:51:26;103743.28;;;10.06;38.50
76680;BME280;65597;51.520;-0.224;2023-02-12T02:53:51;103742.53;;;9.57;39.13
76680;BME280;65597;51.520;-0.224;2023-02-12T02:56:15;103737.60;;;10.09;38.81
76680;BME280;65597;51.520;-0.224;2023-02-12T02:58:42;103736.49;;;9.57;38.93
76680;BME280;65597;51.520;-0.224;2023-02-12T03:01:07;103736.16;;;9.72;39.17
76680;BME280;65597;51.520;-0.224;2023-02-12T03:03:32;103737.07;;;10.05;39.06
76680;BME280;65597;51.520;-0.224;2023-02-12T03:05:59;103730.25;;;10.22;38.83
76680;BME280;65597;51.520;-0.224;2023-02-12T03:08:21;103726.61;;;10.05;38.67
76680;BME280;65597;51.520;-0.224;2023-02-12T03:10:50;103725.24;;;10.03;38.85
76680;BME280;65597;51.520;-0.224;2023-02-12T03:13:13;103725.64;;;10.03;38.60
76680;BME280;65597;51.520;-0.224;2023-02-12T03:15:38;103724.72;;;10.09;38.48
76680;BME280;65597;51.520;-0.224;2023-02-12T03:18:04;103726.37;;;9.97;38.75
76680;BME280;65597;51.520;-0.224;2023-02-12T03:20:29;103727.52;;;9.85;38.49
76680;BME280;65597;51.520;-0.224;2023-02-12T03:22:55;103726.05;;;9.84;38.54
76680;BME280;65597;51.520;-0.224;2023-02-12T03:25:20;103727.25;;;10.37;38.34
76680;BME280;65597;51.520;-0.224;2023-02-12T03:27:44;103726.08;;;10.17;38.25
76680;BME280;65597;51.520;-0.224;2023-02-12T03:30:09;103724.08;;;10.23;38.20
76680;BME280;65597;51.520;-0.224;2023-02-12T03:32:40;103724.84;;;9.97;38.30
76680;BME280;65597;51.520;-0.224;2023-02-12T03:35:08;103725.26;;;10.28;38.28
76680;BME280;65597;51.520;-0.224;2023-02-12T03:37:29;103727.67;;;10.56;38.32
76680;BME280;65597;51.520;-0.224;2023-02-12T03:39:53;103728.91;;;10.08;38.20
76680;BME280;65597;51.520;-0.224;2023-02-12T03:42:18;103729.03;;;10.34;38.21
76680;BME280;65597;51.520;-0.224;2023-02-12T03:44:47;103730.70;;;10.38;38.20
76680;BME280;65597;51.520;-0.224;2023-02-12T03:47:15;103728.37;;;10.16;38.31
76680;BME280;65597;51.520;-0.224;2023-02-12T03:49:37;103727.28;;;10.42;38.37
76680;BME280;65597;51.520;-0.224;2023-02-12T03:51:58;103722.15;;;10.22;38.25
76680;BME280;65597;51.520;-0.224;2023-02-12T03:54:23;103723.25;;;10.69;37.98
76680;BME280;65597;51.520;-0.224;2023-02-12T03:56:52;103723.96;;;10.45;37.64
76680;BME280;65597;51.520;-0.224;2023-02-12T03:59:15;103725.80;;;10.24;37.57
76680;BME280;65597;51.520;-0.224;2023-02-12T04:01:40;103729.90;;;10.22;37.62
76680;BME280;65597;51.520;-0.224;2023-02-12T04:04:07;103734.13;;;9.87;38.20
76680;BME280;65597;51.520;-0.224;2023-02-12T04:06:31;103732.09;;;9.40;37.82
76680;BME280;65597;51.520;-0.224;2023-02-12T04:09:00;103730.33;;;9.82;37.84
76680;BME280;65597;51.520;-0.224;2023-02-12T04:11:27;103732.19;;;10.15;37.79
76680;BME280;65597;51.520;-0.224;2023-02-12T04:13:56;103733.81;;;10.08;37.54
76680;BME280;65597;51.520;-0.224;2023-02-12T04:16:21;103731.44;;;10.40;37.49
76680;BME280;65597;51.520;-0.224;2023-02-12T04:18:41;103728.47;;;10.20;37.49
76680;BME280;65597;51.520;-0.224;2023-02-12T04:21:10;103727.40;;;10.53;37.44
76680;BME280;65597;51.520;-0.224;2023-02-12T04:23:42;103730.71;;;10.36;37.56
76680;BME280;65597;51.520;-0.224;2023-02-12T04:26:02;103727.01;;;10.61;37.43
76680;BME280;65597;51.520;-0.224;2023-02-12T04:28:27;103725.24;;;10.27;37.60
76680;BME280;65597;51.520;-0.224;2023-02-12T04:30:53;103722.76;;;10.62;37.51
76680;BME280;65597;51.520;-0.224;2023-02-12T04:33:16;103724.36;;;10.09;37.48
76680;BME280;65597;51.520;-0.224;2023-02-12T04:35:42;103724.41;;;10.20;37.57
76680;BME280;65597;51.520;-0.224;2023-02-12T04:38:08;103724.16;;;10.10;37.50
76680;BME280;65597;51.520;-0.224;2023-02-12T04:40:29;103720.07;;;10.35;37.34
76680;BME280;65597;51.520;-0.224;2023-02-12T04:42:53;103720.45;;;10.65;37.59
76680;BME280;65597;51.520;-0.224;2023-02-12T04:45:23;103722.83;;;10.48;37.71
76680;BME280;65597;51.520;-0.224;2023-02-12T04:47:45;103724.37;;;10.50;37.70
76680;BME280;65597;51.520;-0.224;2023-02-12T04:50:11;103726.95;;;10.29;37.68
76680;BME280;65597;51.520;-0.224;2023-02-12T04:52:36;103728.01;;;10.56;37.50
76680;BME280;65597;51.520;-0.224;2023-02-12T04:55:02;103729.05;;;10.58;37.48
76680;BME280;65597;51.520;-0.224;2023-02-12T04:57:27;103729.33;;;10.51;37.70
76680;BME280;65597;51.520;-0.224;2023-02-12T04:59:55;103728.70;;;10.24;37.74
76680;BME280;65597;51.520;-0.224;2023-02-12T05:02:18;103729.67;;;10.35;37.53
76680;BME280;65597;51.520;-0.224;2023-02-12T05:04:43;103728.07;;;10.64;37.45
76680;BME280;65597;51.520;-0.224;2023-02-12T05:07:10;103729.76;;;10.42;37.33
76680;BME280;65597;51.520;-0.224;2023-02-12T05:09:35;103729.24;;;10.92;37.49
76680;BME280;65597;51.520;-0.224;2023-02-12T05:12:02;103729.87;;;10.43;37.21
76680;BME280;65597;51.520;-0.224;2023-02-12T05:14:26;103731.25;;;10.69;37.32
76680;BME280;65597;51.520;-0.224;2023-02-12T05:16:52;103728.47;;;10.49;37.55
76680;BME280;65597;51.520;-0.224;2023-02-12T05:19:22;103727.40;;;10.72;37.61
76680;BME280;65597;51.520;-0.224;2023-02-12T05:21:42;103724.39;;;10.68;37.56
76680;BME280;65597;51.520;-0.224;2023-02-12T05:24:07;103723.71;;;10.65;37.49
76680;BME280;65597;51.520;-0.224;2023-02-12T05:26:33;103722.99;;;10.43;37.46
76680;BME280;65597;51.520;-0.224;2023-02-12T05:28:58;103719.32;;;10.65;37.40
76680;BME280;65597;51.520;-0.224;2023-02-12T05:31:24;103716.20;;;10.36;37.48
76680;BME280;65597;51.520;-0.224;2023-02-12T05:33:49;103718.46;;;10.34;37.09
76680;BME280;65597;51.520;-0.224;2023-02-12T05:36:17;103718.28;;;10.33;37.10
76680;BME280;65597;51.520;-0.224;2023-02-12T05:38:40;103716.07;;;10.54;37.06
76680;BME280;65597;51.520;-0.224;2023-02-12T05:41:07;103715.05;;;10.86;36.98
76680;BME280;65597;51.520;-0.224;2023-02-12T05:43:31;103712.23;;;10.60;37.40
76680;BME280;65597;51.520;-0.224;2023-02-12T05:45:58;103713.12;;;10.39;37.28
76680;BME280;65597;51.520;-0.224;2023-02-12T05:48:23;103713.72;;;10.68;37.31
76680;BME280;65597;51.520;-0.224;2023-02-12T05:50:47;103712.71;;;10.68;37.39
76680;BME280;65597;51.520;-0.224;2023-02-12T05:53:12;103712.39;;;10.45;37.31
76680;BME280;65597;51.520;-0.224;2023-02-12T05:55:37;103709.91;;;10.67;37.28
76680;BME280;65597;51.520;-0.224;2023-02-12T05:58:03;103712.72;;;10.47;37.29
76680;BME280;65597;51.520;-0.224;2023-02-12T06:00:28;103708.58;;;10.48;37.38
76680;BME280;65597;51.520;-0.224;2023-02-12T06:02:54;103705.92;;;10.49;37.41
76680;BME280;65597;51.520;-0.224;2023-02-12T06:05:19;103708.31;;;10.51;37.32
76680;BME280;65597;51.520;-0.224;2023-02-12T06:07:44;103711.29;;;10.54;37.34
76680;BME280;65597;51.520;-0.224;2023-02-12T06:10:10;103713.64;;;11.04;37.46
76680;BME280;65597;51.520;-0.224;2023-02-12T06:12:36;103717.11;;;10.59;37.16
76680;BME280;65597;51.520;-0.224;2023-02-12T06:15:01;103718.07;;;10.63;37.15
76680;BME280;65597;51.520;-0.224;2023-02-12T06:17:26;103715.98;;;10.61;37.24
76680;BME280;65597;51.520;-0.224;2023-02-12T06:19:51;103715.59;;;10.64;37.13
76680;BME280;65597;51.520;-0.224;2023-02-12T06:22:17;103715.05;;;10.45;37.34
76680;BME280;65597;51.520;-0.224;2023-02-12T06:24:42;103716.61;;;11.02;37.06
76680;BME280;65597;51.520;-0.224;2023-02-12T06:27:08;103711.29;;;10.59;37.11
76680;BME280;65597;51.520;-0.224;2023-02-12T06:29:33;103706.15;;;10.60;37.70
76680;BME280;65597;51.520;-0.224;2023-02-12T06:31:58;103705.06;;;10.43;37.74
76680;BME280;65597;51.520;-0.224;2023-02-12T06:34:23;103712.94;;;10.52;37.51
76680;BME280;65597;51.520;-0.224;2023-02-12T06:36:48;103711.16;;;10.56;37.46
76680;BME280;65597;51.520;-0.224;2023-02-12T06:39:15;103708.94;;;10.76;37.52
76680;BME280;65597;51.520;-0.224;2023-02-12T06:41:40;103709.08;;;10.52;37.57
76680;BME280;65597;51.520;-0.224;2023-02-12T06:44:05;103712.41;;;10.77;37.56
76680;BME280;65597;51.520;-0.224;2023-02-12T06:46:31;103713.96;;;10.56;37.35
76680;BME280;65597;51.520;-0.224;2023-02-12T06:48:58;103710.48;;;10.58;37.13
76680;BME280;65597;51.520;-0.224;2023-02-12T06:51:21;103708.90;;;10.59;37.05
76680;BME280;65597;51.520;-0.224;2023-02-12T06:53:46;103707.60;;;10.58;36.86
76680;BME280;65597;51.520;-0.224;2023-02-12T06:56:12;103705.27;;;10.66;36.77
76680;BME280;65597;51.520;-0.224;2023-02-12T06:58:39;103707.45;;;10.66;36.94
76680;BME280;65597;51.520;-0.224;2023-02-12T07:01:08;103709.24;;;10.64;36.66
76680;BME280;65597;51.520;-0.224;2023-02-12T07:03:29;103708.89;;;10.65;36.71
76680;BME280;65597;51.520;-0.224;2023-02-12T07:05:54;103708.62;;;10.73;36.71
76680;BME280;65597;51.520;-0.224;2023-02-12T07:08:19;103708.87;;;10.66;36.69
76680;BME280;65597;51.520;-0.224;2023-02-12T07:10:47;103712.29;;;10.95;36.68
76680;BME280;65597;51.520;-0.224;2023-02-12T07:13:12;103710.70;;;10.76;36.95
76680;BME280;65597;51.520;-0.224;2023-02-12T07:15:38;103715.60;;;10.73;37.04
76680;BME280;65597;51.520;-0.224;2023-02-12T07:18:01;103720.95;;;10.75;37.05
76680;BME280;65597;51.520;-0.224;2023-02-12T07:20:27;103722.11;;;10.80;37.12
76680;BME280;65597;51.520;-0.224;2023-02-12T07:22:52;103723.76;;;10.79;37.24
76680;BME280;65597;51.520;-0.224;2023-02-12T07:25:18;103727.44;;;10.77;37.49
76680;BME280;65597;51.520;-0.224;2023-02-12T07:27:43;103729.73;;;10.78;37.35
76680;BME280;65597;51.520;-0.224;2023-02-12T07:30:09;103731.49;;;10.69;37.43
76680;BME280;65597;51.520;-0.224;2023-02-12T07:32:33;103729.50;;;10.62;37.80
76680;BME280;65597;51.520;-0.224;2023-02-12T07:34:59;103731.13;;;10.73;37.70
76680;BME280;65597;51.520;-0.224;2023-02-12T07:37:26;103731.65;;;10.79;37.65
76680;BME280;65597;51.520;-0.224;2023-02-12T07:39:50;103731.08;;;11.03;37.60
76680;BME280;65597;51.520;-0.224;2023-02-12T07:42:15;103731.44;;;10.82;37.58
76680;BME280;65597;51.520;-0.224;2023-02-12T07:44:40;103736.47;;;10.81;37.68
76680;BME280;65597;51.520;-0.224;2023-02-12T07:47:07;103736.64;;;10.82;37.52
76680;BME280;65597;51.520;-0.224;2023-02-12T07:49:33;103730.66;;;10.85;37.72
76680;BME280;65597;51.520;-0.224;2023-02-12T07:51:56;103731.56;;;10.87;37.58
76680;BME280;65597;51.520;-0.224;2023-02-12T07:54:22;103736.64;;;11.13;37.44
76680;BME280;65597;51.520;-0.224;2023-02-12T07:56:47;103736.25;;;11.37;37.43
76680;BME280;65597;51.520;-0.224;2023-02-12T07:59:15;103738.16;;;11.15;37.48
76680;BME280;65597;51.520;-0.224;2023-02-12T08:01:39;103737.99;;;10.98;37.39
76680;BME280;65597;51.520;-0.224;2023-02-12T08:04:05;103737.00;;;11.02;37.18
76680;BME280;65597;51.520;-0.224;2023-02-12T08:06:30;103736.98;;;11.04;37.33
76680;BME280;65597;51.520;-0.224;2023-02-12T08:08:55;103737.68;;;11.08;37.39
76680;BME280;65597;51.520;-0.224;2023-02-12T08:11:20;103741.17;;;11.35;37.31
76680;BME280;65597;51.520;-0.224;2023-02-12T08:13:46;103740.70;;;10.89;37.34
76680;BME280;65597;51.520;-0.224;2023-02-12T08:16:11;103743.47;;;11.16;37.13
76680;BME280;65597;51.520;-0.224;2023-02-12T08:18:35;103736.20;;;10.81;36.57
76680;BME280;65597;51.520;-0.224;2023-02-12T08:21:02;103736.65;;;10.88;36.37
76680;BME280;65597;51.520;-0.224;2023-02-12T08:23:26;103736.04;;;10.90;36.42
76680;BME280;65597;51.520;-0.224;2023-02-12T08:25:51;103742.73;;;10.82;36.44
76680;BME280;65597;51.520;-0.224;2023-02-12T08:28:17;103744.34;;;10.96;36.40
76680;BME280;65597;51.520;-0.224;2023-02-12T08:30:42;103740.67;;;11.22;36.47
76680;BME280;65597;51.520;-0.224;2023-02-12T08:33:07;103738.71;;;10.88;36.56
76680;BME280;65597;51.520;-0.224;2023-02-12T08:35:32;103746.34;;;10.90;36.73
76680;BME280;65597;51.520;-0.224;2023-02-12T08:37:59;103748.26;;;10.68;37.36
76680;BME280;65597;51.520;-0.224;2023-02-12T08:40:25;103745.62;;;10.64;37.43
76680;BME280;65597;51.520;-0.224;2023-02-12T08:42:51;103747.95;;;10.48;37.47
76680;BME280;65597;51.520;-0.224;2023-02-12T08:45:14;103753.25;;;10.64;37.42
76680;BME280;65597;51.520;-0.224;2023-02-12T08:47:40;103752.49;;;10.76;37.62
76680;BME280;65597;51.520;-0.224;2023-02-12T08:50:06;103751.89;;;10.83;37.41
76680;BME280;65597;51.520;-0.224;2023-02-12T08:52:33;103748.77;;;10.89;37.68
76680;BME280;65597;51.520;-0.224;2023-02-12T08:54:56;103748.92;;;10.69;37.81
76680;BME280;65597;51.520;-0.224;2023-02-12T08:57:22;103752.10;;;10.78;37.85
76680;BME280;65597;51.520;-0.224;2023-02-12T08:59:47;103756.93;;;10.81;37.89
76680;BME280;65597;51.520;-0.224;2023-02-12T09:02:14;103759.50;;;10.81;37.94
76680;BME280;65597;51.520;-0.224;2023-02-12T09:04:38;103757.85;;;10.89;37.92
76680;BME280;65597;51.520;-0.224;2023-02-12T09:07:04;103760.17;;;10.60;38.09
76680;BME280;65597;51.520;-0.224;2023-02-12T09:09:29;103762.90;;;10.82;37.95
76680;BME280;65597;51.520;-0.224;2023-02-12T09:11:54;103763.52;;;10.95;38.25
76680;BME280;65597;51.520;-0.224;2023-02-12T09:14:20;103765.27;;;11.07;38.23
76680;BME280;65597;51.520;-0.224;2023-02-12T09:16:46;103765.70;;;11.08;38.33
76680;BME280;65597;51.520;-0.224;2023-02-12T09:19:12;103764.36;;;11.05;38.43
76680;BME280;65597;51.520;-0.224;2023-02-12T09:21:36;103764.44;;;10.82;38.50
76680;BME280;65597;51.520;-0.224;2023-02-12T09:24:02;103765.78;;;10.77;38.74
76680;BME280;65597;51.520;-0.224;2023-02-12T09:26:27;103769.73;;;10.86;38.48
76680;BME280;65597;51.520;-0.224;2023-02-12T09:28:53;103769.87;;;10.61;39.80
76680;BME280;65597;51.520;-0.224;2023-02-12T09:31:20;103767.69;;;10.55;40.50
76680;BME280;65597;51.520;-0.224;2023-02-12T09:33:49;103771.05;;;10.52;40.60
76680;BME280;65597;51.520;-0.224;2023-02-12T09:36:15;103769.27;;;10.72;40.68
76680;BME280;65597;51.520;-0.224;2023-02-12T09:38:37;103767.69;;;10.75;40.51
76680;BME280;65597;51.520;-0.224;2023-02-12T09:41:13;103772.02;;;10.76;40.61
76680;BME280;65597;51.520;-0.224;2023-02-12T09:43:30;103774.98;;;10.76;40.85
76680;BME280;65597;51.520;-0.224;2023-02-12T09:45:56;103773.26;;;10.83;40.54
76680;BME280;65597;51.520;-0.224;2023-02-12T09:48:30;103770.46;;;10.56;41.22
76680;BME280;65597;51.520;-0.224;2023-02-12T09:50:45;103771.84;;;10.82;41.10
76680;BME280;65597;51.520;-0.224;2023-02-12T09:53:09;103770.39;;;10.80;41.11
76680;BME280;65597;51.520;-0.224;2023-02-12T09:55:35;103768.26;;;10.83;41.25
76680;BME280;65597;51.520;-0.224;2023-02-12T09:58:06;103768.63;;;10.89;41.20
76680;BME280;65597;51.520;-0.224;2023-02-12T10:00:27;103764.12;;;10.87;40.78
76680;BME280;65597;51.520;-0.224;2023-02-12T10:02:52;103766.19;;;10.88;40.68
76680;BME280;65597;51.520;-0.224;2023-02-12T10:05:16;103765.37;;;10.70;40.78
76680;BME280;65597;51.520;-0.224;2023-02-12T10:07:54;103766.06;;;10.66;40.39
76680;BME280;65597;51.520;-0.224;2023-02-12T10:10:16;103762.08;;;10.60;40.49
76680;BME280;65597;51.520;-0.224;2023-02-12T10:12:36;103758.65;;;11.25;40.42
76680;BME280;65597;51.520;-0.224;2023-02-12T10:15:11;103764.91;;;10.75;40.42
76680;BME280;65597;51.520;-0.224;2023-02-12T10:17:29;103764.79;;;10.63;40.41
76680;BME280;65597;51.520;-0.224;2023-02-12T10:20:00;103762.72;;;10.63;40.24
76680;BME280;65597;51.520;-0.224;2023-02-12T10:22:20;103761.31;;;10.68;40.10
76680;BME280;65597;51.520;-0.224;2023-02-12T10:24:51;103764.80;;;10.50;40.02
76680;BME280;65597;51.520;-0.224;2023-02-12T10:27:10;103767.33;;;10.68;40.04
76680;BME280;65597;51.520;-0.224;2023-02-12T10:29:32;103768.57;;;10.78;40.03
76680;BME280;65597;51.520;-0.224;2023-02-12T10:31:59;103767.94;;;10.96;40.19
76680;BME280;65597;51.520;-0.224;2023-02-12T10:34:30;103766.98;;;10.83;40.41
76680;BME280;65597;51.520;-0.224;2023-02-12T10:36:47;103767.06;;;10.86;40.24
76680;BME280;65597;51.520;-0.224;2023-02-12T10:39:19;103772.40;;;10.50;40.66
76680;BME280;65597;51.520;-0.224;2023-02-12T10:41:41;103766.55;;;10.65;40.42
76680;BME280;65597;51.520;-0.224;2023-02-12T10:44:02;103773.23;;;10.79;40.09
76680;BME280;65597;51.520;-0.224;2023-02-12T10:46:29;103776.10;;;10.24;40.27
76680;BME280;65597;51.520;-0.224;2023-02-12T10:48:53;103775.05;;;10.45;40.15
76680;BME280;65597;51.520;-0.224;2023-02-12T10:51:37;103776.10;;;10.33;40.72
76680;BME280;65597;51.520;-0.224;2023-02-12T10:53:45;103779.61;;;10.33;40.93
76680;BME280;65597;51.520;-0.224;2023-02-12T10:56:15;103775.92;;;10.34;41.07
76680;BME280;65597;51.520;-0.224;2023-02-12T10:58:35;103772.61;;;10.18;41.22
76680;BME280;65597;51.520;-0.224;2023-02-12T11:01:01;103776.22;;;10.52;40.85
76680;BME280;65597;51.520;-0.224;2023-02-12T11:03:33;103778.14;;;10.72;40.58
76680;BME280;65597;51.520;-0.224;2023-02-12T11:05:51;103774.17;;;10.79;40.39
76680;BME280;65597;51.520;-0.224;2023-02-12T11:08:27;103774.71;;;10.10;40.76
76680;BME280;65597;51.520;-0.224;2023-02-12T11:10:42;103777.68;;;9.85;40.86
76680;BME280;65597;51.520;-0.224;2023-02-12T11:15:37;103770.53;;;10.44;40.46
76680;BME280;65597;51.520;-0.224;2023-02-12T11:18:00;103774.54;;;9.62;41.35
76680;BME280;65597;51.520;-0.224;2023-02-12T11:20:26;103771.77;;;9.55;41.02
76680;BME280;65597;51.520;-0.224;2023-02-12T11:22:53;103766.85;;;10.30;40.50
76680;BME280;65597;51.520;-0.224;2023-02-12T11:25:16;103762.52;;;9.94;40.07
76680;BME280;65597;51.520;-0.224;2023-02-12T11:27:42;103762.78;;;9.68;40.29
76680;BME280;65597;51.520;-0.224;2023-02-12T11:30:13;103760.78;;;9.69;40.45
76680;BME280;65597;51.520;-0.224;2023-02-12T11:32:31;103761.54;;;10.15;40.06
76680;BME280;65597;51.520;-0.224;2023-02-12T11:35:10;103758.08;;;9.88;40.16
76680;BME280;65597;51.520;-0.224;2023-02-12T11:37:22;103757.75;;;9.70;40.00
76680;BME280;65597;51.520;-0.224;2023-02-12T11:39:49;103754.89;;;9.87;39.45
76680;BME280;65597;51.520;-0.224;2023-02-12T11:42:16;103750.83;;;9.91;39.50
76680;BME280;65597;51.520;-0.224;2023-02-12T11:44:40;103745.23;;;10.27;39.23
76680;BME280;65597;51.520;-0.224;2023-02-12T11:47:06;103747.51;;;10.05;39.02
76680;BME280;65597;51.520;-0.224;2023-02-12T11:49:38;103748.44;;;9.90;39.62
76680;BME280;65597;51.520;-0.224;2023-02-12T11:51:55;103745.17;;;9.87;39.62
76680;BME280;65597;51.520;-0.224;2023-02-12T11:54:22;103746.34;;;10.15;39.24
76680;BME280;65597;51.520;-0.224;2023-02-12T11:56:45;103750.72;;;10.40;38.86
76680;BME280;65597;51.520;-0.224;2023-02-12T11:59:20;103743.45;;;10.16;38.49
76680;BME280;65597;51.520;-0.224;2023-02-12T12:01:37;103735.05;;;9.87;39.20
76680;BME280;65597;51.520;-0.224;2023-02-12T12:04:06;103731.91;;;10.31;39.06
76680;BME280;65597;51.520;-0.224;2023-02-12T12:06:33;103737.00;;;10.34;39.01
76680;BME280;65597;51.520;-0.224;2023-02-12T12:08:59;103733.88;;;10.08;44.48
76680;BME280;65597;51.520;-0.224;2023-02-12T12:11:20;103730.85;;;10.36;39.55
76680;BME280;65597;51.520;-0.224;2023-02-12T12:13:48;103734.52;;;10.38;39.09
76680;BME280;65597;51.520;-0.224;2023-02-12T12:16:13;103731.36;;;10.49;39.06
76680;BME280;65597;51.520;-0.224;2023-02-12T12:18:40;103728.05;;;10.42;38.87
76680;BME280;65597;51.520;-0.224;2023-02-12T12:21:06;103729.76;;;10.44;38.81
76680;BME280;65597;51.520;-0.224;2023-02-12T12:23:31;103728.99;;;10.21;38.88
76680;BME280;65597;51.520;-0.224;2023-02-12T12:25:54;103733.21;;;10.36;39.20
76680;BME280;65597;51.520;-0.224;2023-02-12T12:28:31;103731.79;;;10.18;39.43
76680;BME280;65597;51.520;-0.224;2023-02-12T12:30:53;103726.57;;;10.37;39.11
76680;BME280;65597;51.520;-0.224;2023-02-12T12:33:14;103727.59;;;10.57;38.98
76680;BME280;65597;51.520;-0.224;2023-02-12T12:35:40;103721.66;;;10.68;39.01
76680;BME280;65597;51.520;-0.224;2023-02-12T12:38:01;103715.88;;;10.82;38.83